Terminal Aerodrome Forecast
Issued by NWS

Home | Current Version | Previous Version | Graphics & Text | Print | Product List | Glossary On
Versions: 1 2 3 4 5 6 7 8 9 10 11 12 13 14 15 16 17 18 19 20 21 22 23 24 25 26 27 28 29 30 31 32 33 34 35 36 37 38 39 40 41 42
000
FTUS43 KGRB 251139
TAFRHI
TAF
KRHI 251139Z 2512/2612 VRB03KT P6SM BKN200
     FM251600 18009KT P6SM SCT035 SCT200
     FM260300 20006KT P6SM BKN035 WS002/21035KT PROB30 2603/2608 5SM
      -TSRA BKN060CB
     FM260800 19005KT P6SM SCT025 OVC040
      TEMPO 2608/2612 3SM -TSRA BKN025CB=

USA.gov is the U.S. government's official web portal to all federal, state and local government web resources and services.